createdAt,value
2018-04-16T00:00:07.228Z,99748.52
2018-04-16T00:02:34.607Z,99749.11
2018-04-16T00:05:02.036Z,99750.22
2018-04-16T00:07:29.415Z,99753.20
2018-04-16T00:09:56.803Z,99749.59
2018-04-16T00:12:24.187Z,99752.20
2018-04-16T00:14:51.567Z,99749.78
2018-04-16T00:17:18.956Z,99747.27
2018-04-16T00:19:46.338Z,99746.49
2018-04-16T00:22:13.730Z,99747.41
2018-04-16T00:24:41.102Z,99750.09
2018-04-16T00:27:08.499Z,99749.39
2018-04-16T00:29:35.879Z,99754.54
2018-04-16T00:32:08.952Z,99759.52
2018-04-16T00:34:42.023Z,99760.18
2018-04-16T00:40:19.035Z,99756.77
2018-04-16T00:42:51.955Z,99756.48
2018-04-16T00:45:24.851Z,99760.70
2018-04-16T00:47:57.899Z,99760.31
2018-04-16T00:50:30.935Z,99765.16
2018-04-16T00:53:03.987Z,99759.83
2018-04-16T00:55:36.914Z,99768.70
2018-04-16T00:58:09.919Z,99764.53
2018-04-16T01:00:42.948Z,99765.91
2018-04-16T01:03:16.031Z,99764.17
2018-04-16T01:05:48.791Z,99764.81
2018-04-16T01:08:21.691Z,99764.84
2018-04-16T01:10:54.554Z,99765.77
2018-04-16T01:13:27.496Z,99767.02
2018-04-16T01:16:00.559Z,99767.27
2018-04-16T01:18:33.834Z,99770.37
2018-04-16T01:21:06.863Z,99775.20
2018-04-16T01:23:40.212Z,99781.73
2018-04-16T01:26:13.135Z,99771.31
2018-04-16T01:28:46.031Z,99776.34
2018-04-16T01:31:18.943Z,99782.51
2018-04-16T01:33:51.847Z,99779.16
2018-04-16T01:36:24.770Z,99781.02
2018-04-16T01:38:57.827Z,99771.95
2018-04-16T01:41:30.719Z,99768.76
2018-04-16T01:44:03.515Z,99778.67
2018-04-16T01:46:36.295Z,99779.91
2018-04-16T01:49:09.239Z,99783.05
2018-04-16T01:51:42.159Z,99790.47
2018-04-16T01:54:15.079Z,99794.36
2018-04-16T01:56:48.018Z,99787.77
2018-04-16T01:59:21.102Z,99794.27
2018-04-16T02:01:54.002Z,99791.61
2018-04-16T02:04:27.125Z,99788.73
2018-04-16T02:10:02.659Z,99788.50
2018-04-16T02:12:35.720Z,99787.53
2018-04-16T02:15:08.714Z,99793.44
2018-04-16T02:17:41.636Z,99789.89
2018-04-16T02:20:14.742Z,99785.40
2018-04-16T02:22:47.779Z,99781.95
2018-04-16T02:25:20.828Z,99788.72
2018-04-16T02:27:53.738Z,99790.69
2018-04-16T02:30:26.658Z,99787.69
2018-04-16T02:32:59.598Z,99786.06
2018-04-16T02:35:32.557Z,99789.45
2018-04-16T02:38:05.588Z,99783.41
2018-04-16T02:40:38.665Z,99778.20
2018-04-16T02:43:11.539Z,99789.72
2018-04-16T02:48:46.467Z,99780.93
2018-04-16T02:51:19.571Z,99782.31
2018-04-16T02:53:52.451Z,99787.57
2018-04-16T02:56:25.394Z,99797.37
2018-04-16T02:58:58.166Z,99806.66
2018-04-16T03:01:31.248Z,99806.88
2018-04-16T03:04:04.176Z,99812.34
2018-04-16T03:06:37.127Z,99802.87
2018-04-16T03:09:12.689Z,99805.30
2018-04-16T03:11:45.759Z,99808.25
2018-04-16T03:14:18.768Z,99807.84
2018-04-16T03:16:51.839Z,99809.30
2018-04-16T03:19:24.883Z,99809.75
2018-04-16T03:21:57.855Z,99814.26
2018-04-16T03:24:30.915Z,99814.54
2018-04-16T03:27:03.843Z,99822.34
2018-04-16T03:29:36.755Z,99825.08
2018-04-16T03:32:09.799Z,99820.61
2018-04-16T03:34:42.687Z,99820.58
2018-04-16T03:37:15.615Z,99826.12
2018-04-16T03:39:48.571Z,99829.49
2018-04-16T03:42:21.632Z,99829.83
2018-04-16T03:44:54.357Z,99825.36
2018-04-16T03:47:27.335Z,99839.90
2018-04-16T03:50:00.215Z,99831.44
2018-04-16T03:52:33.123Z,99841.70
2018-04-16T03:55:06.158Z,99841.33
2018-04-16T03:57:33.635Z,99838.67
2018-04-16T04:00:01.023Z,99844.22
2018-04-16T04:02:28.404Z,99842.56
2018-04-16T04:04:55.786Z,99844.02
2018-04-16T04:07:23.171Z,99846.56
2018-04-16T04:09:50.563Z,99851.03
2018-04-16T04:12:17.943Z,99849.45
2018-04-16T04:14:45.332Z,99853.06
2018-04-16T04:17:12.715Z,99858.78
2018-04-16T04:19:40.094Z,99860.41
2018-04-16T04:22:07.495Z,99859.91
2018-04-16T04:24:46.683Z,99852.95
2018-04-16T04:27:25.908Z,99859.41
2018-04-16T04:30:05.099Z,99863.50
2018-04-16T04:32:32.490Z,99856.83
2018-04-16T04:34:59.875Z,99864.08
2018-04-16T04:37:27.255Z,99861.50
2018-04-16T04:39:54.763Z,99860.95
2018-04-16T04:42:22.139Z,99867.26
2018-04-16T04:44:49.618Z,99873.09
2018-04-16T04:47:17.017Z,99875.34
2018-04-16T04:49:44.399Z,99877.22
2018-04-16T04:52:11.788Z,99873.39
2018-04-16T04:54:39.170Z,99874.62
2018-04-16T04:57:06.570Z,99868.38
2018-04-16T04:59:33.947Z,99880.88
2018-04-16T05:02:01.332Z,99885.60
2018-04-16T05:04:28.722Z,99892.91
2018-04-16T05:06:56.111Z,99901.54
2018-04-16T05:09:23.561Z,99899.03
2018-04-16T05:11:50.945Z,99906.46
2018-04-16T05:14:18.358Z,99905.83
2018-04-16T05:16:45.743Z,99905.54
2018-04-16T05:19:13.123Z,99912.17
2018-04-16T05:21:40.521Z,99907.97
2018-04-16T05:24:07.947Z,99913.14
2018-04-16T05:26:35.327Z,99915.69
2018-04-16T05:29:02.731Z,99916.88
2018-04-16T05:31:30.187Z,99923.20
2018-04-16T05:33:57.609Z,99924.95
2018-04-16T05:36:24.995Z,99923.48
2018-04-16T05:38:52.401Z,99928.16
2018-04-16T05:41:19.791Z,99932.11
2018-04-16T05:43:47.172Z,99934.08
2018-04-16T05:46:14.563Z,99930.03
2018-04-16T05:48:41.959Z,99935.00
2018-04-16T05:51:09.343Z,99932.62
2018-04-16T05:53:36.987Z,99941.50
2018-04-16T05:56:04.370Z,99944.50
2018-04-16T05:58:31.770Z,99951.59
2018-04-16T06:00:59.150Z,99954.22
2018-04-16T06:03:26.535Z,99958.38
2018-04-16T06:05:53.926Z,99958.34
2018-04-16T06:08:21.315Z,99963.09
2018-04-16T06:10:48.713Z,99962.41
2018-04-16T06:13:16.096Z,99966.96
2018-04-16T06:15:43.482Z,99967.50
2018-04-16T06:18:10.871Z,99965.33
2018-04-16T06:20:38.257Z,99970.86
2018-04-16T06:23:05.699Z,99973.70
2018-04-16T06:25:33.087Z,99963.13
2018-04-16T06:28:00.479Z,99962.17
2018-04-16T06:30:27.871Z,99965.95
2018-04-16T06:32:55.263Z,99977.61
2018-04-16T06:35:22.918Z,99986.86
2018-04-16T06:37:50.299Z,99986.97
2018-04-16T06:40:17.694Z,99990.22
2018-04-16T06:42:45.079Z,99993.67
2018-04-16T06:45:12.467Z,99993.28
2018-04-16T06:47:39.875Z,99999.16
2018-04-16T06:50:07.267Z,100002.52
2018-04-16T06:52:34.651Z,100016.70
2018-04-16T06:55:02.108Z,100015.01
2018-04-16T06:57:29.496Z,100019.23
2018-04-16T06:59:56.999Z,100016.81
2018-04-16T07:02:24.383Z,100023.23
2018-04-16T07:04:51.768Z,100030.95
2018-04-16T07:07:19.183Z,100022.78
2018-04-16T07:09:46.557Z,100032.38
2018-04-16T07:12:13.967Z,100029.47
2018-04-16T07:14:41.355Z,100029.06
2018-04-16T07:17:08.739Z,100027.92
2018-04-16T07:19:36.135Z,100022.91
2018-04-16T07:22:03.523Z,100028.84
2018-04-16T07:24:31.251Z,100037.38
2018-04-16T07:26:58.642Z,100038.86
2018-04-16T07:29:26.026Z,100047.61
2018-04-16T07:31:53.886Z,100044.00
2018-04-16T07:34:21.272Z,100050.80
2018-04-16T07:36:48.676Z,100058.00
2018-04-16T07:39:16.063Z,100056.85
2018-04-16T07:41:43.447Z,100067.43
2018-04-16T07:44:10.838Z,100069.80
2018-04-16T07:46:38.232Z,100070.21
2018-04-16T07:49:05.660Z,100069.77
2018-04-16T07:51:33.014Z,100074.88
2018-04-16T07:54:00.404Z,100075.97
2018-04-16T07:56:27.800Z,100081.73
2018-04-16T07:58:55.186Z,100087.30
2018-04-16T08:01:22.604Z,100086.79
2018-04-16T08:03:49.975Z,100087.44
2018-04-16T08:06:17.359Z,100092.44
2018-04-16T08:08:44.763Z,100082.29
2018-04-16T08:11:12.152Z,100082.39
2018-04-16T08:13:39.983Z,100087.02
2018-04-16T08:16:07.385Z,100090.00
2018-04-16T08:18:34.756Z,100096.63
2018-04-16T08:21:02.151Z,100100.61
2018-04-16T08:23:29.535Z,100099.53
2018-04-16T08:25:57.008Z,100103.53
2018-04-16T08:28:24.391Z,100107.09
2018-04-16T08:30:51.777Z,100103.30
2018-04-16T08:33:19.235Z,100104.13
2018-04-16T08:35:46.560Z,100106.06
2018-04-16T08:38:13.957Z,100102.95
2018-04-16T08:40:41.343Z,100110.13
2018-04-16T08:43:08.727Z,100110.38
2018-04-16T08:45:36.122Z,100105.98
2018-04-16T08:48:03.511Z,100108.69
2018-04-16T08:50:30.911Z,100110.20
2018-04-16T08:52:58.299Z,100105.09
2018-04-16T08:55:25.693Z,100100.39
2018-04-16T08:57:53.084Z,100106.50
2018-04-16T09:00:20.472Z,100113.17
2018-04-16T09:02:47.868Z,100122.43
2018-04-16T09:05:15.256Z,100116.80
2018-04-16T09:07:42.643Z,100120.73
2018-04-16T09:10:10.035Z,100113.62
2018-04-16T09:12:37.424Z,100125.94
2018-04-16T09:15:04.823Z,100123.66
2018-04-16T09:17:32.210Z,100124.52
2018-04-16T09:19:59.606Z,100127.95
2018-04-16T09:22:27.007Z,100131.56
2018-04-16T09:24:54.391Z,100127.21
2018-04-16T09:27:22.290Z,100123.62
2018-04-16T09:29:49.662Z,100134.31
2018-04-16T09:32:17.058Z,100145.90
2018-04-16T09:34:44.450Z,100138.03
2018-04-16T09:37:11.843Z,100142.81
2018-04-16T09:39:39.625Z,100146.50
2018-04-16T09:42:06.954Z,100148.33
2018-04-16T09:44:34.343Z,100147.14
2018-04-16T09:47:01.740Z,100156.59
2018-04-16T09:49:29.127Z,100156.83
2018-04-16T09:51:56.523Z,100157.46
2018-04-16T09:54:23.912Z,100172.27
2018-04-16T09:56:51.304Z,100172.59
2018-04-16T09:59:18.691Z,100170.73
2018-04-16T10:01:50.855Z,100169.21
2018-04-16T10:04:18.252Z,100166.16
2018-04-16T10:06:45.635Z,100167.61
2018-04-16T10:09:13.035Z,100168.74
2018-04-16T10:11:40.530Z,100165.09
2018-04-16T10:14:07.930Z,100166.73
2018-04-16T10:16:35.323Z,100168.39
2018-04-16T10:19:02.711Z,100169.94
2018-04-16T10:21:30.111Z,100176.33
2018-04-16T10:23:57.500Z,100174.94
2018-04-16T10:26:24.915Z,100175.89
2018-04-16T10:28:52.275Z,100178.22
2018-04-16T10:31:19.667Z,100182.02
2018-04-16T10:33:47.075Z,100180.47
2018-04-16T10:36:14.475Z,100185.87
2018-04-16T10:38:41.863Z,100178.91
2018-04-16T10:41:09.270Z,100179.09
2018-04-16T10:43:36.647Z,100181.81
2018-04-16T10:46:04.040Z,100183.44
2018-04-16T10:48:31.423Z,100186.69
2018-04-16T10:50:58.817Z,100186.34
2018-04-16T10:53:26.199Z,100179.97
2018-04-16T10:55:53.598Z,100186.04
2018-04-16T10:58:20.991Z,100184.38
2018-04-16T11:00:48.375Z,100187.52
2018-04-16T11:03:15.762Z,100177.89
2018-04-16T11:05:43.185Z,100181.05
2018-04-16T11:08:10.556Z,100181.66
2018-04-16T11:10:37.951Z,100185.16
2018-04-16T11:13:05.345Z,100185.07
2018-04-16T11:15:32.731Z,100188.92
2018-04-16T11:18:00.119Z,100194.05
2018-04-16T11:20:27.499Z,100193.75
2018-04-16T11:22:54.899Z,100189.22
2018-04-16T11:25:22.283Z,100189.16
2018-04-16T11:27:49.670Z,100189.56
2018-04-16T11:30:17.069Z,100185.61
2018-04-16T11:32:44.455Z,100189.22
2018-04-16T11:35:11.847Z,100187.91
2018-04-16T11:37:39.226Z,100196.34
2018-04-16T11:40:06.623Z,100199.00
2018-04-16T11:42:34.007Z,100197.64
2018-04-16T11:45:01.403Z,100197.83
2018-04-16T11:47:28.791Z,100200.37
2018-04-16T11:49:56.171Z,100205.45
2018-04-16T11:52:23.590Z,100198.41
2018-04-16T11:54:50.999Z,100201.70
2018-04-16T11:57:18.402Z,100196.83
2018-04-16T11:59:45.791Z,100202.73
2018-04-16T12:02:13.187Z,100199.66
2018-04-16T12:04:40.662Z,100198.62
2018-04-16T12:07:08.051Z,100189.81
2018-04-16T12:09:35.459Z,100207.97
2018-04-16T12:12:02.846Z,100204.52
2018-04-16T12:14:30.240Z,100200.89
2018-04-16T12:16:57.632Z,100201.59
2018-04-16T12:19:25.024Z,100197.62
2018-04-16T12:21:52.434Z,100203.95
2018-04-16T12:24:19.819Z,100205.37
2018-04-16T12:26:47.206Z,100208.20
2018-04-16T12:29:14.604Z,100206.47
2018-04-16T12:31:41.991Z,100211.26
2018-04-16T12:34:09.391Z,100213.37
2018-04-16T12:36:36.779Z,100204.98
2018-04-16T12:39:04.203Z,100203.33
2018-04-16T12:41:31.576Z,100205.11
2018-04-16T12:43:58.952Z,100205.94
2018-04-16T12:46:26.351Z,100199.31
2018-04-16T12:48:53.738Z,100195.14
2018-04-16T12:51:21.131Z,100197.09
2018-04-16T12:53:48.523Z,100212.52
2018-04-16T12:56:15.919Z,100216.14
2018-04-16T12:58:43.316Z,100215.69
2018-04-16T13:01:10.703Z,100223.13
2018-04-16T13:03:38.094Z,100223.69
2018-04-16T13:06:05.487Z,100230.94
2018-04-16T13:08:32.883Z,100223.77
2018-04-16T13:11:00.286Z,100216.71
2018-04-16T13:13:27.671Z,100226.92
2018-04-16T13:15:55.062Z,100225.89
2018-04-16T13:18:22.460Z,100225.09
2018-04-16T13:20:49.843Z,100238.91
2018-04-16T13:23:17.355Z,100232.30
2018-04-16T13:25:44.747Z,100231.47
2018-04-16T13:28:12.135Z,100233.41
2018-04-16T13:30:39.531Z,100235.72
2018-04-16T13:33:06.923Z,100234.47
2018-04-16T13:35:34.315Z,100236.06
2018-04-16T13:38:01.707Z,100245.98
2018-04-16T13:40:29.107Z,100237.30
2018-04-16T13:42:56.492Z,100231.91
2018-04-16T13:45:23.879Z,100238.95
2018-04-16T13:47:51.293Z,100243.16
2018-04-16T13:50:18.675Z,100240.05
2018-04-16T13:52:46.074Z,100237.34
2018-04-16T13:55:13.464Z,100236.89
2018-04-16T13:57:40.869Z,100242.12
2018-04-16T14:00:08.243Z,100247.97
2018-04-16T14:02:35.751Z,100245.39
2018-04-16T14:05:04.567Z,100242.25
2018-04-16T14:07:32.038Z,100241.59
2018-04-16T14:09:59.427Z,100246.42
2018-04-16T14:12:26.818Z,100246.14
2018-04-16T14:14:54.211Z,100241.94
2018-04-16T14:17:21.793Z,100245.86
2018-04-16T14:19:49.170Z,100248.29
2018-04-16T14:22:16.640Z,100253.42
2018-04-16T14:24:44.101Z,100247.71
2018-04-16T14:27:11.480Z,100248.56
2018-04-16T14:29:38.883Z,100250.32
2018-04-16T14:32:06.379Z,100253.29
2018-04-16T14:34:33.769Z,100255.72
2018-04-16T14:37:01.167Z,100262.09
2018-04-16T14:39:28.559Z,100264.80
2018-04-16T14:41:55.980Z,100268.60
2018-04-16T14:44:23.348Z,100268.00
2018-04-16T14:46:50.743Z,100268.36
2018-04-16T14:49:18.139Z,100265.91
2018-04-16T14:51:45.563Z,100266.36
2018-04-16T14:54:12.959Z,100266.29
2018-04-16T14:56:40.397Z,100270.19
2018-04-16T14:59:07.743Z,100273.82
2018-04-16T15:01:35.137Z,100274.55
2018-04-16T15:04:02.531Z,100273.34
2018-04-16T15:06:29.927Z,100279.23
2018-04-16T15:08:57.311Z,100285.16
2018-04-16T15:11:24.715Z,100280.41
2018-04-16T15:13:52.102Z,100271.86
2018-04-16T15:16:19.510Z,100267.60
2018-04-16T15:18:46.899Z,100270.03
2018-04-16T15:21:14.351Z,100281.37
2018-04-16T15:23:41.738Z,100278.05
2018-04-16T15:26:09.199Z,100279.95
2018-04-16T15:28:36.655Z,100280.91
2018-04-16T15:31:04.048Z,100277.95
2018-04-16T15:33:31.435Z,100272.66
2018-04-16T15:35:58.827Z,100271.98
2018-04-16T15:38:26.205Z,100281.47
2018-04-16T15:40:53.599Z,100281.61
2018-04-16T15:43:21.003Z,100277.80
2018-04-16T15:45:48.382Z,100278.20
2018-04-16T15:48:15.779Z,100270.51
2018-04-16T15:50:43.160Z,100274.16
2018-04-16T15:53:10.543Z,100275.77
2018-04-16T15:55:37.951Z,100268.20
2018-04-16T15:58:05.347Z,100275.23
2018-04-16T16:00:32.735Z,100277.92
2018-04-16T16:03:00.115Z,100279.36
2018-04-16T16:05:27.506Z,100279.72
2018-04-16T16:07:54.898Z,100284.27
2018-04-16T16:10:22.291Z,100280.90
2018-04-16T16:12:49.677Z,100286.56
2018-04-16T16:15:17.108Z,100280.77
2018-04-16T16:17:44.458Z,100280.03
2018-04-16T16:20:11.843Z,100287.86
2018-04-16T16:22:39.239Z,100294.45
2018-04-16T16:25:06.614Z,100298.64
2018-04-16T16:27:34.010Z,100299.09
2018-04-16T16:30:01.419Z,100304.64
2018-04-16T16:32:28.811Z,100298.59
2018-04-16T16:34:56.193Z,100303.83
2018-04-16T16:37:23.596Z,100306.85
2018-04-16T16:39:50.985Z,100312.27
2018-04-16T16:42:18.522Z,100309.17
2018-04-16T16:44:45.935Z,100312.81
2018-04-16T16:47:13.322Z,100311.78
2018-04-16T16:49:40.707Z,100308.95
2018-04-16T16:52:08.113Z,100318.17
2018-04-16T16:54:35.483Z,100318.84
2018-04-16T16:57:02.860Z,100318.67
2018-04-16T16:59:30.523Z,100320.98
2018-04-16T17:01:57.908Z,100322.87
2018-04-16T17:04:25.291Z,100320.89
2018-04-16T17:06:52.684Z,100319.70
2018-04-16T17:09:20.059Z,100324.27
2018-04-16T17:11:47.470Z,100333.04
2018-04-16T17:14:14.860Z,100329.73
2018-04-16T17:16:42.243Z,100329.54
2018-04-16T17:19:09.623Z,100335.05
2018-04-16T17:21:37.002Z,100337.36
2018-04-16T17:24:04.395Z,100336.92
2018-04-16T17:26:31.861Z,100346.63
2018-04-16T17:28:59.179Z,100345.00
2018-04-16T17:31:26.568Z,100347.97
2018-04-16T17:33:53.952Z,100350.09
2018-04-16T17:36:21.363Z,100353.00
2018-04-16T17:38:48.795Z,100356.67
2018-04-16T17:41:16.298Z,100357.39
2018-04-16T17:43:43.687Z,100369.09
2018-04-16T17:46:11.075Z,100358.78
2018-04-16T17:48:38.488Z,100360.62
2018-04-16T17:51:05.874Z,100365.30
2018-04-16T17:53:33.267Z,100370.76
2018-04-16T17:56:00.662Z,100370.55
2018-04-16T17:58:28.055Z,100377.23
2018-04-16T18:00:55.451Z,100379.48
2018-04-16T18:03:22.884Z,100386.64
2018-04-16T18:05:50.271Z,100392.03
2018-04-16T18:08:17.655Z,100392.59
2018-04-16T18:10:45.047Z,100392.41
2018-04-16T18:13:12.706Z,100391.42
2018-04-16T18:15:40.094Z,100403.63
2018-04-16T18:18:07.529Z,100408.00
2018-04-16T18:20:34.952Z,100408.77
2018-04-16T18:23:02.339Z,100414.22
2018-04-16T18:25:29.742Z,100409.42
2018-04-16T18:27:57.130Z,100420.03
2018-04-16T18:30:24.519Z,100427.63
2018-04-16T18:32:51.917Z,100428.80
2018-04-16T18:35:19.302Z,100423.94
2018-04-16T18:37:46.698Z,100427.33
2018-04-16T18:40:14.093Z,100436.46
2018-04-16T18:42:41.484Z,100436.82
2018-04-16T18:45:08.870Z,100440.53
2018-04-16T18:47:36.278Z,100447.25
2018-04-16T18:50:03.724Z,100453.27
2018-04-16T18:52:31.107Z,100462.17
2018-04-16T18:54:58.502Z,100459.15
2018-04-16T18:57:25.914Z,100471.33
2018-04-16T18:59:53.303Z,100473.02
2018-04-16T19:02:21.139Z,100481.70
2018-04-16T19:04:48.545Z,100482.24
2018-04-16T19:07:15.923Z,100491.71
2018-04-16T19:09:43.318Z,100492.28
2018-04-16T19:12:10.711Z,100501.02
2018-04-16T19:14:38.123Z,100506.86
2018-04-16T19:17:05.519Z,100513.11
2018-04-16T19:19:33.342Z,100510.16
2018-04-16T19:22:00.935Z,100513.39
2018-04-16T19:24:28.314Z,100519.23
2018-04-16T19:27:01.114Z,100524.13
2018-04-16T19:29:28.524Z,100532.37
2018-04-16T19:31:55.903Z,100535.78
2018-04-16T19:34:28.808Z,100544.57
2018-04-16T19:36:56.226Z,100550.18
2018-04-16T19:39:23.615Z,100546.89
2018-04-16T19:41:56.591Z,100560.45
2018-04-16T19:44:24.031Z,100559.80
2018-04-16T19:46:51.439Z,100565.29
2018-04-16T19:49:24.471Z,100571.30
2018-04-16T19:51:51.864Z,100570.71
2018-04-16T19:54:19.350Z,100574.45
2018-04-16T19:56:52.271Z,100575.23
2018-04-16T19:59:19.672Z,100585.95
2018-04-16T20:01:52.576Z,100583.48
2018-04-16T20:04:19.975Z,100588.34
2018-04-16T20:06:47.360Z,100585.82
2018-04-16T20:09:14.788Z,100586.95
2018-04-16T20:11:42.139Z,100599.09
2018-04-16T20:14:09.595Z,100602.95
2018-04-16T20:16:36.986Z,100604.91
2018-04-16T20:19:04.383Z,100605.20
2018-04-16T20:21:31.776Z,100610.47
2018-04-16T20:23:59.167Z,100608.90
2018-04-16T20:26:26.559Z,100609.03
2018-04-16T20:28:53.952Z,100614.86
2018-04-16T20:31:21.338Z,100621.48
2018-04-16T20:33:48.742Z,100627.16
2018-04-16T20:36:16.122Z,100624.21
2018-04-16T20:38:43.511Z,100613.66
2018-04-16T20:41:10.909Z,100619.06
2018-04-16T20:43:38.295Z,100615.78
2018-04-16T20:46:06.016Z,100619.46
2018-04-16T20:48:33.387Z,100624.48
2018-04-16T20:51:00.771Z,100628.11
2018-04-16T20:53:28.163Z,100626.55
2018-04-16T20:55:55.551Z,100627.00
2018-04-16T20:58:22.978Z,100630.46
2018-04-16T21:00:50.370Z,100625.08
2018-04-16T21:03:17.751Z,100630.83
2018-04-16T21:05:45.147Z,100638.78
2018-04-16T21:08:12.535Z,100639.41
2018-04-16T21:10:39.931Z,100640.42
2018-04-16T21:13:07.507Z,100645.00
2018-04-16T21:15:34.895Z,100643.09
2018-04-16T21:18:02.282Z,100642.52
2018-04-16T21:20:29.675Z,100642.39
2018-04-16T21:25:23.751Z,100650.83
2018-04-16T21:27:51.148Z,100650.77
2018-04-16T21:30:18.531Z,100650.73
2018-04-16T21:32:45.927Z,100649.12
2018-04-16T21:35:13.339Z,100659.55
2018-04-16T21:37:40.780Z,100663.59
2018-04-16T21:40:08.174Z,100655.07
2018-04-16T21:42:35.563Z,100654.79
2018-04-16T21:45:02.963Z,100661.31
2018-04-16T21:47:30.687Z,100662.23
2018-04-16T21:49:58.079Z,100671.09
2018-04-16T21:52:25.471Z,100664.20
2018-04-16T21:54:52.867Z,100664.02
2018-04-16T21:57:20.259Z,100670.36
2018-04-16T21:59:47.651Z,100669.27
2018-04-16T22:02:15.035Z,100675.10
2018-04-16T22:04:42.425Z,100670.59
2018-04-16T22:07:09.815Z,100678.52
2018-04-16T22:09:37.214Z,100680.17
2018-04-16T22:12:04.607Z,100677.48
2018-04-16T22:14:31.991Z,100674.73
2018-04-16T22:16:59.383Z,100679.69
2018-04-16T22:19:26.777Z,100683.95
2018-04-16T22:21:54.959Z,100680.24
2018-04-16T22:24:22.751Z,100686.40
2018-04-16T22:26:50.139Z,100685.98
2018-04-16T22:29:17.539Z,100694.11
2018-04-16T22:31:44.924Z,100695.88
2018-04-16T22:34:12.319Z,100696.81
2018-04-16T22:36:39.717Z,100701.36
2018-04-16T22:39:07.099Z,100711.64
2018-04-16T22:41:34.488Z,100707.94
2018-04-16T22:44:01.884Z,100710.12
2018-04-16T22:46:29.275Z,100714.94
2018-04-16T22:48:57.111Z,100707.03
2018-04-16T22:51:24.498Z,100712.88
2018-04-16T22:53:51.886Z,100722.23
2018-04-16T22:56:19.279Z,100725.92
2018-04-16T22:58:46.668Z,100728.83
2018-04-16T23:01:14.062Z,100725.02
2018-04-16T23:03:41.452Z,100726.34
2018-04-16T23:06:08.835Z,100734.28
2018-04-16T23:08:36.226Z,100731.49
2018-04-16T23:11:03.643Z,100737.67
2018-04-16T23:13:31.019Z,100742.28
2018-04-16T23:15:58.399Z,100739.91
2018-04-16T23:18:25.792Z,100745.36
2018-04-16T23:20:53.186Z,100743.48
2018-04-16T23:23:20.574Z,100741.84
2018-04-16T23:25:47.978Z,100751.72
2018-04-16T23:28:15.364Z,100748.02
2018-04-16T23:30:42.746Z,100748.63
2018-04-16T23:33:10.149Z,100745.41
2018-04-16T23:35:37.531Z,100754.44
2018-04-16T23:38:04.928Z,100750.53
2018-04-16T23:40:32.320Z,100758.11
2018-04-16T23:42:59.707Z,100759.13
2018-04-16T23:45:27.098Z,100757.06
2018-04-16T23:47:54.582Z,100759.12
2018-04-16T23:50:22.322Z,100760.62
2018-04-16T23:52:49.707Z,100759.59
2018-04-16T23:55:17.092Z,100761.77
2018-04-16T23:57:44.485Z,100767.29
